SKW3996 KMKE-KDTW
Flight info
| Callsign | SKW3996 |
|---|---|
| Flight time | 0h 41m |
| Altitude | 25000 |
| Route | SQUIB DUUDA RKCTY2 |
| Aircraft | CRJ9/M-SDFGIRWY/S |
Departure
| Time | 2026-05-08 22:12 |
|---|---|
| Airport | General Mitchell International Airport (KMKE) |
Arrival
| Time | 2026-05-08 22:54 |
|---|---|
| Airport | Detroit Metropolitan Wayne County Airport (KDTW) |
| Time | Latitude | Longitude | Altitude | Speed | Heading |
|---|---|---|---|---|---|
| 2026-05-08 21:48 | 42.94871 | -87.89808 | 686 ft | 0 kts | 255° |
| 2026-05-08 22:02 | 42.94871 | -87.89805 | 686 ft | 2 kts | 255° |
| 2026-05-08 22:02 | 42.94877 | -87.89776 | 679 ft | 2 kts | 255° |
| 2026-05-08 22:03 | 42.94882 | -87.89742 | 682 ft | 4 kts | 263° |
| 2026-05-08 22:03 | 42.94879 | -87.89711 | 683 ft | 4 kts | 306° |
| 2026-05-08 22:03 | 42.94864 | -87.89706 | 682 ft | 4 kts | 6° |
| 2026-05-08 22:03 | 42.94848 | -87.89709 | 680 ft | 3 kts | 6° |
| 2026-05-08 22:04 | 42.94845 | -87.89709 | 686 ft | 0 kts | 6° |
| 2026-05-08 22:06 | 42.94846 | -87.89709 | 686 ft | 0 kts | 6° |
| 2026-05-08 22:07 | 42.94850 | -87.89708 | 683 ft | 1 kts | 6° |
| 2026-05-08 22:07 | 42.94863 | -87.89707 | 686 ft | 2 kts | 5° |
| 2026-05-08 22:07 | 42.94887 | -87.89705 | 686 ft | 4 kts | 2° |
| 2026-05-08 22:07 | 42.94925 | -87.89704 | 683 ft | 6 kts | 4° |
| 2026-05-08 22:08 | 42.94962 | -87.89685 | 686 ft | 5 kts | 47° |
| 2026-05-08 22:08 | 42.94972 | -87.89639 | 686 ft | 5 kts | 83° |
| 2026-05-08 22:08 | 42.94990 | -87.89589 | 686 ft | 8 kts | 33° |
| 2026-05-08 22:08 | 42.95055 | -87.89573 | 686 ft | 10 kts | 7° |
| 2026-05-08 22:09 | 42.95124 | -87.89560 | 686 ft | 10 kts | 7° |
| 2026-05-08 22:09 | 42.95194 | -87.89548 | 686 ft | 10 kts | 7° |
| 2026-05-08 22:09 | 42.95266 | -87.89536 | 686 ft | 11 kts | 6° |
| 2026-05-08 22:09 | 42.95340 | -87.89524 | 686 ft | 11 kts | 6° |
| 2026-05-08 22:10 | 42.95415 | -87.89511 | 686 ft | 11 kts | 7° |
| 2026-05-08 22:10 | 42.95492 | -87.89498 | 686 ft | 11 kts | 7° |
| 2026-05-08 22:10 | 42.95570 | -87.89484 | 686 ft | 11 kts | 7° |
| 2026-05-08 22:10 | 42.95650 | -87.89470 | 686 ft | 12 kts | 7° |
| 2026-05-08 22:11 | 42.95727 | -87.89441 | 686 ft | 11 kts | 41° |
| 2026-05-08 22:11 | 42.95739 | -87.89344 | 683 ft | 10 kts | 116° |
| 2026-05-08 22:11 | 42.95678 | -87.89317 | 686 ft | 14 kts | 186° |
| 2026-05-08 22:11 | 42.95406 | -87.89363 | 686 ft | 69 kts | 187° |
| 2026-05-08 22:12 | 42.94747 | -87.89477 | 684 ft | 120 kts | 187° |
| 2026-05-08 22:12 | 42.93779 | -87.89643 | 702 ft | 157 kts | 184° |
| 2026-05-08 22:12 | 42.92675 | -87.89833 | 1171 ft | 160 kts | 183° |
| 2026-05-08 22:12 | 42.91581 | -87.89976 | 1869 ft | 154 kts | 183° |
| 2026-05-08 22:13 | 42.90499 | -87.90082 | 2404 ft | 160 kts | 185° |
| 2026-05-08 22:13 | 42.89315 | -87.90203 | 2746 ft | 184 kts | 186° |
| 2026-05-08 22:13 | 42.87933 | -87.90326 | 3144 ft | 213 kts | 185° |
| 2026-05-08 22:13 | 42.86352 | -87.90433 | 3565 ft | 241 kts | 182° |
| 2026-05-08 22:14 | 42.84642 | -87.89858 | 4033 ft | 271 kts | 152° |
| 2026-05-08 22:14 | 42.83276 | -87.88051 | 4974 ft | 277 kts | 123° |
| 2026-05-08 22:14 | 42.82656 | -87.85539 | 5780 ft | 285 kts | 95° |
| 2026-05-08 22:14 | 42.82613 | -87.82810 | 6559 ft | 291 kts | 88° |
| 2026-05-08 22:15 | 42.82736 | -87.80035 | 7340 ft | 295 kts | 84° |
| 2026-05-08 22:15 | 42.82959 | -87.77278 | 8114 ft | 299 kts | 81° |
| 2026-05-08 22:15 | 42.83287 | -87.74461 | 8880 ft | 303 kts | 79° |
| 2026-05-08 22:15 | 42.83679 | -87.71616 | 9637 ft | 307 kts | 78° |
| 2026-05-08 22:16 | 42.84081 | -87.68740 | 10299 ft | 313 kts | 78° |
| 2026-05-08 22:16 | 42.84491 | -87.65790 | 10833 ft | 322 kts | 77° |
| 2026-05-08 22:16 | 42.84911 | -87.62745 | 11374 ft | 332 kts | 78° |
| 2026-05-08 22:16 | 42.85326 | -87.59612 | 11929 ft | 341 kts | 77° |
| 2026-05-08 22:17 | 42.85746 | -87.56389 | 12496 ft | 349 kts | 77° |
| 2026-05-08 22:17 | 42.86173 | -87.53086 | 13074 ft | 358 kts | 77° |
| 2026-05-08 22:17 | 42.86609 | -87.49704 | 13657 ft | 366 kts | 77° |
| 2026-05-08 22:17 | 42.87053 | -87.46253 | 14167 ft | 373 kts | 77° |
| 2026-05-08 22:18 | 42.87500 | -87.42739 | 14692 ft | 380 kts | 77° |
| 2026-05-08 22:18 | 42.87952 | -87.39156 | 15226 ft | 386 kts | 77° |
| 2026-05-08 22:18 | 42.88407 | -87.35568 | 15749 ft | 392 kts | 77° |
| 2026-05-08 22:18 | 42.88873 | -87.31869 | 16296 ft | 398 kts | 77° |
| 2026-05-08 22:19 | 42.89343 | -87.28129 | 16854 ft | 402 kts | 77° |
| 2026-05-08 22:19 | 42.89820 | -87.24331 | 17275 ft | 410 kts | 77° |
| 2026-05-08 22:19 | 42.90300 | -87.20469 | 17828 ft | 415 kts | 77° |
| 2026-05-08 22:19 | 42.90785 | -87.16573 | 18339 ft | 419 kts | 77° |
| 2026-05-08 22:20 | 42.91276 | -87.12643 | 18815 ft | 422 kts | 78° |
| 2026-05-08 22:20 | 42.91769 | -87.08667 | 19272 ft | 426 kts | 77° |
| 2026-05-08 22:20 | 42.92253 | -87.04663 | 19729 ft | 430 kts | 79° |
| 2026-05-08 22:20 | 42.92678 | -87.00601 | 20172 ft | 434 kts | 80° |
| 2026-05-08 22:21 | 42.93097 | -86.96511 | 20620 ft | 437 kts | 79° |
| 2026-05-08 22:21 | 42.93540 | -86.92389 | 21058 ft | 440 kts | 79° |
| 2026-05-08 22:21 | 42.93989 | -86.88242 | 21473 ft | 443 kts | 79° |
| 2026-05-08 22:21 | 42.94436 | -86.84119 | 21889 ft | 446 kts | 79° |
| 2026-05-08 22:22 | 42.94888 | -86.79904 | 22292 ft | 449 kts | 79° |
| 2026-05-08 22:22 | 42.95338 | -86.75668 | 22707 ft | 452 kts | 79° |
| 2026-05-08 22:22 | 42.95790 | -86.71406 | 23075 ft | 455 kts | 79° |
| 2026-05-08 22:22 | 42.96242 | -86.67113 | 23434 ft | 458 kts | 79° |
| 2026-05-08 22:23 | 42.96696 | -86.62793 | 23756 ft | 461 kts | 79° |
| 2026-05-08 22:23 | 42.97152 | -86.58440 | 24056 ft | 464 kts | 79° |
| 2026-05-08 22:23 | 42.97606 | -86.54072 | 24330 ft | 467 kts | 79° |
| 2026-05-08 22:23 | 42.98065 | -86.49664 | 24592 ft | 470 kts | 79° |
| 2026-05-08 22:24 | 42.98521 | -86.45219 | 24736 ft | 474 kts | 79° |
| 2026-05-08 22:24 | 42.98983 | -86.40735 | 24796 ft | 479 kts | 80° |
| 2026-05-08 22:24 | 42.99448 | -86.36214 | 24827 ft | 482 kts | 80° |
| 2026-05-08 22:24 | 42.99909 | -86.31669 | 24840 ft | 483 kts | 80° |
| 2026-05-08 22:25 | 43.00374 | -86.27118 | 24849 ft | 484 kts | 80° |
| 2026-05-08 22:25 | 43.00832 | -86.22611 | 24844 ft | 485 kts | 80° |
| 2026-05-08 22:25 | 43.01287 | -86.18044 | 24847 ft | 486 kts | 80° |
| 2026-05-08 22:25 | 43.01750 | -86.13460 | 24848 ft | 487 kts | 80° |
| 2026-05-08 22:26 | 43.02209 | -86.08859 | 24851 ft | 488 kts | 80° |
| 2026-05-08 22:26 | 43.02669 | -86.04262 | 24851 ft | 489 kts | 80° |
| 2026-05-08 22:26 | 43.03126 | -85.99646 | 24852 ft | 490 kts | 80° |
| 2026-05-08 22:26 | 43.03582 | -85.95029 | 24855 ft | 491 kts | 80° |
| 2026-05-08 22:27 | 43.04039 | -85.90396 | 24860 ft | 491 kts | 80° |
| 2026-05-08 22:27 | 43.04490 | -85.85777 | 24854 ft | 489 kts | 80° |
| 2026-05-08 22:27 | 43.04941 | -85.81169 | 24848 ft | 488 kts | 80° |
| 2026-05-08 22:27 | 43.05235 | -85.78130 | 24846 ft | 487 kts | 80° |
| 2026-05-08 22:28 | 43.05679 | -85.73544 | 24847 ft | 486 kts | 80° |
| 2026-05-08 22:28 | 43.06121 | -85.68971 | 24843 ft | 483 kts | 80° |
| 2026-05-08 22:28 | 43.06557 | -85.64436 | 24837 ft | 479 kts | 80° |
| 2026-05-08 22:28 | 43.06983 | -85.59951 | 24833 ft | 474 kts | 80° |
| 2026-05-08 22:29 | 43.07410 | -85.55485 | 24841 ft | 471 kts | 80° |
| 2026-05-08 22:29 | 43.07829 | -85.51062 | 24835 ft | 467 kts | 81° |
| 2026-05-08 22:29 | 43.08237 | -85.46662 | 24835 ft | 464 kts | 80° |
| 2026-05-08 22:29 | 43.08642 | -85.42356 | 24834 ft | 461 kts | 80° |
| 2026-05-08 22:30 | 43.09053 | -85.38015 | 24840 ft | 458 kts | 80° |
| 2026-05-08 22:30 | 43.09459 | -85.33702 | 24836 ft | 455 kts | 80° |
| 2026-05-08 22:30 | 43.09864 | -85.29423 | 24835 ft | 453 kts | 80° |
| 2026-05-08 22:30 | 43.10264 | -85.25151 | 24831 ft | 450 kts | 80° |
| 2026-05-08 22:31 | 43.10655 | -85.20907 | 24838 ft | 449 kts | 80° |
| 2026-05-08 22:31 | 43.11048 | -85.16665 | 24838 ft | 450 kts | 81° |
| 2026-05-08 22:31 | 43.11438 | -85.12414 | 24839 ft | 450 kts | 81° |
| 2026-05-08 22:31 | 43.11824 | -85.08162 | 24837 ft | 451 kts | 81° |
| 2026-05-08 22:32 | 43.12214 | -85.03902 | 24841 ft | 451 kts | 80° |
| 2026-05-08 22:32 | 43.12599 | -84.99634 | 24834 ft | 452 kts | 81° |
| 2026-05-08 22:32 | 43.12981 | -84.95414 | 24501 ft | 444 kts | 81° |
| 2026-05-08 22:32 | 43.13357 | -84.91226 | 23911 ft | 441 kts | 81° |
| 2026-05-08 22:33 | 43.13505 | -84.87039 | 23312 ft | 440 kts | 96° |
| 2026-05-08 22:33 | 43.12696 | -84.83103 | 22658 ft | 434 kts | 118° |
| 2026-05-08 22:33 | 43.11039 | -84.79714 | 22024 ft | 425 kts | 133° |
| 2026-05-08 22:33 | 43.09167 | -84.76605 | 21406 ft | 421 kts | 133° |
| 2026-05-08 22:34 | 43.07343 | -84.73488 | 20843 ft | 418 kts | 130° |
| 2026-05-08 22:34 | 43.05643 | -84.70265 | 20271 ft | 416 kts | 127° |
| 2026-05-08 22:34 | 43.04038 | -84.66989 | 19732 ft | 413 kts | 126° |
| 2026-05-08 22:34 | 43.02456 | -84.63731 | 19185 ft | 410 kts | 126° |
| 2026-05-08 22:35 | 43.00879 | -84.60504 | 18650 ft | 406 kts | 127° |
| 2026-05-08 22:35 | 42.99283 | -84.57323 | 18122 ft | 404 kts | 127° |
| 2026-05-08 22:35 | 42.97695 | -84.54184 | 17544 ft | 400 kts | 127° |
| 2026-05-08 22:35 | 42.96119 | -84.51069 | 16979 ft | 397 kts | 127° |
| 2026-05-08 22:36 | 42.94552 | -84.47977 | 16431 ft | 394 kts | 128° |
| 2026-05-08 22:36 | 42.92993 | -84.44917 | 15883 ft | 391 kts | 128° |
| 2026-05-08 22:36 | 42.91450 | -84.41870 | 15389 ft | 387 kts | 127° |
| 2026-05-08 22:36 | 42.89969 | -84.38888 | 14934 ft | 383 kts | 127° |
| 2026-05-08 22:37 | 42.88489 | -84.35899 | 14569 ft | 376 kts | 127° |
| 2026-05-08 22:37 | 42.87032 | -84.32960 | 14284 ft | 373 kts | 127° |
| 2026-05-08 22:37 | 42.85582 | -84.30044 | 14052 ft | 370 kts | 127° |
| 2026-05-08 22:37 | 42.84146 | -84.27157 | 13832 ft | 366 kts | 127° |
| 2026-05-08 22:38 | 42.82723 | -84.24290 | 13625 ft | 363 kts | 128° |
| 2026-05-08 22:38 | 42.81310 | -84.21451 | 13364 ft | 360 kts | 128° |
| 2026-05-08 22:38 | 42.79902 | -84.18624 | 13103 ft | 361 kts | 127° |
| 2026-05-08 22:38 | 42.78492 | -84.15800 | 12862 ft | 359 kts | 127° |
| 2026-05-08 22:39 | 42.77100 | -84.13022 | 12593 ft | 351 kts | 128° |
| 2026-05-08 22:39 | 42.75734 | -84.10297 | 12317 ft | 345 kts | 127° |
| 2026-05-08 22:39 | 42.74400 | -84.07608 | 12053 ft | 341 kts | 127° |
| 2026-05-08 22:39 | 42.73095 | -84.04964 | 11781 ft | 339 kts | 127° |
| 2026-05-08 22:40 | 42.71775 | -84.02316 | 11513 ft | 337 kts | 127° |
| 2026-05-08 22:40 | 42.70454 | -83.99681 | 11255 ft | 336 kts | 127° |
| 2026-05-08 22:40 | 42.69149 | -83.97062 | 11004 ft | 334 kts | 124° |
| 2026-05-08 22:40 | 42.68217 | -83.94192 | 10741 ft | 330 kts | 109° |
| 2026-05-08 22:41 | 42.67617 | -83.91228 | 10484 ft | 321 kts | 104° |
| 2026-05-08 22:41 | 42.67129 | -83.88300 | 10239 ft | 316 kts | 103° |
| 2026-05-08 22:41 | 42.66652 | -83.85410 | 9986 ft | 311 kts | 103° |
| 2026-05-08 22:41 | 42.66177 | -83.82563 | 9733 ft | 307 kts | 104° |
| 2026-05-08 22:42 | 42.65673 | -83.79767 | 9463 ft | 303 kts | 105° |
| 2026-05-08 22:42 | 42.65154 | -83.77023 | 9228 ft | 298 kts | 105° |
| 2026-05-08 22:42 | 42.64629 | -83.74322 | 8980 ft | 294 kts | 105° |
| 2026-05-08 22:42 | 42.64126 | -83.71653 | 8756 ft | 290 kts | 105° |
| 2026-05-08 22:43 | 42.63627 | -83.69021 | 8552 ft | 286 kts | 105° |
| 2026-05-08 22:43 | 42.63126 | -83.66407 | 8376 ft | 287 kts | 105° |
| 2026-05-08 22:43 | 42.62630 | -83.63794 | 8174 ft | 283 kts | 106° |
| 2026-05-08 22:43 | 42.62046 | -83.61273 | 7935 ft | 277 kts | 118° |
| 2026-05-08 22:44 | 42.61145 | -83.59025 | 7701 ft | 273 kts | 122° |
| 2026-05-08 22:44 | 42.60214 | -83.56796 | 7450 ft | 270 kts | 122° |
| 2026-05-08 22:44 | 42.59288 | -83.54600 | 7209 ft | 267 kts | 122° |
| 2026-05-08 22:44 | 42.58364 | -83.52430 | 6991 ft | 264 kts | 123° |
| 2026-05-08 22:45 | 42.57378 | -83.50352 | 6757 ft | 260 kts | 128° |
| 2026-05-08 22:45 | 42.56358 | -83.48340 | 6516 ft | 257 kts | 128° |
| 2026-05-08 22:45 | 42.55349 | -83.46354 | 6292 ft | 255 kts | 128° |
| 2026-05-08 22:45 | 42.54342 | -83.44394 | 6065 ft | 252 kts | 127° |
| 2026-05-08 22:46 | 42.53327 | -83.42434 | 5819 ft | 254 kts | 128° |
| 2026-05-08 22:46 | 42.52306 | -83.40471 | 5627 ft | 257 kts | 128° |
| 2026-05-08 22:46 | 42.51272 | -83.38489 | 5434 ft | 258 kts | 127° |
| 2026-05-08 22:46 | 42.50231 | -83.36502 | 5253 ft | 258 kts | 128° |
| 2026-05-08 22:47 | 42.49205 | -83.34548 | 5064 ft | 257 kts | 128° |
| 2026-05-08 22:47 | 42.48170 | -83.32580 | 4874 ft | 256 kts | 128° |
| 2026-05-08 22:47 | 42.47147 | -83.30635 | 4677 ft | 251 kts | 128° |
| 2026-05-08 22:47 | 42.46120 | -83.28750 | 4469 ft | 246 kts | 135° |
| 2026-05-08 22:48 | 42.44770 | -83.27427 | 4309 ft | 238 kts | 153° |
| 2026-05-08 22:48 | 42.43361 | -83.26269 | 4144 ft | 236 kts | 152° |
| 2026-05-08 22:48 | 42.41902 | -83.25338 | 3944 ft | 228 kts | 172° |
| 2026-05-08 22:48 | 42.40359 | -83.25012 | 3769 ft | 223 kts | 180° |
| 2026-05-08 22:49 | 42.38825 | -83.24914 | 3564 ft | 217 kts | 193° |
| 2026-05-08 22:49 | 42.36222 | -83.26600 | 3338 ft | 205 kts | 214° |
| 2026-05-08 22:49 | 42.34993 | -83.27487 | 3237 ft | 194 kts | 214° |
| 2026-05-08 22:50 | 42.33846 | -83.28309 | 3105 ft | 180 kts | 215° |
| 2026-05-08 22:50 | 42.32800 | -83.29084 | 2952 ft | 167 kts | 215° |
| 2026-05-08 22:50 | 42.31828 | -83.29824 | 2673 ft | 150 kts | 216° |
| 2026-05-08 22:50 | 42.30966 | -83.30464 | 2495 ft | 140 kts | 216° |
| 2026-05-08 22:51 | 42.30104 | -83.31104 | 2334 ft | 143 kts | 217° |
| 2026-05-08 22:51 | 42.29226 | -83.31764 | 2145 ft | 144 kts | 216° |
| 2026-05-08 22:51 | 42.28368 | -83.32398 | 1910 ft | 136 kts | 216° |
| 2026-05-08 22:51 | 42.27547 | -83.32997 | 1701 ft | 133 kts | 216° |
| 2026-05-08 22:52 | 42.26724 | -83.33597 | 1596 ft | 138 kts | 216° |
| 2026-05-08 22:52 | 42.25875 | -83.34261 | 1458 ft | 140 kts | 214° |
| 2026-05-08 22:52 | 42.25029 | -83.34887 | 1249 ft | 139 kts | 208° |
| 2026-05-08 22:52 | 42.24192 | -83.35491 | 1028 ft | 135 kts | 205° |
| 2026-05-08 22:53 | 42.23368 | -83.36096 | 839 ft | 134 kts | 201° |
| 2026-05-08 22:53 | 42.22552 | -83.36686 | 675 ft | 132 kts | 202° |
| 2026-05-08 22:53 | 42.21862 | -83.37187 | 642 ft | 91 kts | 209° |
| 2026-05-08 22:53 | 42.21422 | -83.37515 | 646 ft | 58 kts | 208° |
| 2026-05-08 22:54 | 42.21172 | -83.37692 | 645 ft | 31 kts | 205° |
| 2026-05-08 22:54 | 42.20993 | -83.37749 | 645 ft | 18 kts | 173° |
| 2026-05-08 22:54 | 42.20910 | -83.37720 | 648 ft | 5 kts | 160° |
| 2026-05-08 22:54 | 42.20887 | -83.37691 | 645 ft | 5 kts | 93° |
| 2026-05-08 22:55 | 42.20918 | -83.37635 | 645 ft | 11 kts | 36° |
| 2026-05-08 22:55 | 42.20985 | -83.37583 | 647 ft | 11 kts | 30° |
| 2026-05-08 22:55 | 42.21049 | -83.37521 | 646 ft | 11 kts | 61° |
| 2026-05-08 22:55 | 42.21032 | -83.37424 | 646 ft | 13 kts | 116° |
| 2026-05-08 22:56 | 42.20985 | -83.37306 | 646 ft | 14 kts | 120° |
| 2026-05-08 22:56 | 42.20937 | -83.37187 | 646 ft | 14 kts | 118° |
| 2026-05-08 22:56 | 42.20888 | -83.37067 | 645 ft | 15 kts | 118° |
| 2026-05-08 22:56 | 42.20840 | -83.36948 | 645 ft | 15 kts | 118° |
| 2026-05-08 22:57 | 42.20790 | -83.36825 | 644 ft | 15 kts | 118° |
| 2026-05-08 22:57 | 42.20737 | -83.36696 | 644 ft | 16 kts | 118° |
| 2026-05-08 22:57 | 42.20688 | -83.36571 | 645 ft | 13 kts | 109° |
| 2026-05-08 22:57 | 42.20729 | -83.36482 | 644 ft | 12 kts | 28° |
| 2026-05-08 22:58 | 42.20805 | -83.36426 | 644 ft | 13 kts | 28° |
| 2026-05-08 22:58 | 42.20885 | -83.36366 | 644 ft | 13 kts | 28° |
| 2026-05-08 22:58 | 42.20968 | -83.36308 | 644 ft | 14 kts | 27° |
| 2026-05-08 22:58 | 42.21054 | -83.36246 | 644 ft | 14 kts | 28° |
| 2026-05-08 22:59 | 42.21141 | -83.36181 | 644 ft | 14 kts | 28° |
| 2026-05-08 22:59 | 42.21229 | -83.36115 | 645 ft | 15 kts | 30° |
| 2026-05-08 22:59 | 42.21319 | -83.36047 | 644 ft | 15 kts | 28° |
| 2026-05-08 22:59 | 42.21410 | -83.35981 | 644 ft | 15 kts | 28° |
| 2026-05-08 23:00 | 42.21502 | -83.35913 | 645 ft | 13 kts | 28° |
| 2026-05-08 23:00 | 42.21542 | -83.35810 | 644 ft | 13 kts | 90° |
| 2026-05-08 23:00 | 42.21543 | -83.35686 | 644 ft | 13 kts | 89° |
| 2026-05-08 23:00 | 42.21544 | -83.35560 | 644 ft | 13 kts | 88° |
| 2026-05-08 23:01 | 42.21547 | -83.35433 | 644 ft | 14 kts | 88° |
| 2026-05-08 23:01 | 42.21550 | -83.35305 | 644 ft | 14 kts | 89° |
| 2026-05-08 23:01 | 42.21518 | -83.35217 | 644 ft | 11 kts | 169° |
| 2026-05-08 23:01 | 42.21444 | -83.35227 | 644 ft | 11 kts | 202° |
| 2026-05-08 23:02 | 42.21376 | -83.35268 | 644 ft | 11 kts | 206° |
| 2026-05-08 23:02 | 42.21307 | -83.35313 | 644 ft | 10 kts | 206° |
| 2026-05-08 23:02 | 42.21252 | -83.35352 | 645 ft | 8 kts | 208° |
| 2026-05-08 23:02 | 42.21211 | -83.35382 | 644 ft | 6 kts | 208° |
| 2026-05-08 23:03 | 42.21176 | -83.35411 | 645 ft | 5 kts | 230° |
| 2026-05-08 23:03 | 42.21172 | -83.35436 | 644 ft | 2 kts | 278° |
| 2026-05-08 23:03 | 42.21175 | -83.35451 | 644 ft | 1 kts | 290° |
| 2026-05-08 23:03 | 42.21178 | -83.35462 | 646 ft | 1 kts | 295° |
| 2026-05-08 23:04 | 42.21180 | -83.35467 | 644 ft | 0 kts | 296° |
| 2026-05-08 23:04 | 42.21182 | -83.35474 | 644 ft | 0 kts | 297° |